Time;durP1;ratioP1;P1;durP2;ratioP2;P2;SDS_P1;SDS_P2;PMS_P1;PMS_P2;Temp;Humidity;BMP_temperature;BMP_pressure;BME280_temperature;BME280_humidity;BME280_pressure;Samples;Min_cycle;Max_cycle;Signal;HPM_P1;HPM_P2
2023/05/08 00:00:33;;;;;;;6.68;2.65;;;;;;;16.34;57.08;100111.88;5036630;28;20079;-68
2023/05/08 00:02:58;;;;;;;3.22;2.63;;;;;;;16.34;56.35;100117.22;5034205;28;20048;-68
2023/05/08 00:05:24;;;;;;;3.83;2.90;;;;;;;16.35;56.40;100118.88;5035467;28;20052;-68
2023/05/08 00:07:51;;;;;;;5.70;2.67;;;;;;;16.38;56.02;100121.16;5033529;28;20026;-68
2023/05/08 00:10:16;;;;;;;3.65;2.58;;;;;;;16.35;55.66;100112.69;5035004;28;20048;-68
2023/05/08 00:12:42;;;;;;;2.80;2.58;;;;;;;16.28;56.32;100110.78;5035823;28;20188;-68
2023/05/08 00:15:08;;;;;;;5.35;2.75;;;;;;;16.21;56.26;100103.72;5034966;28;20049;-68
2023/05/08 00:17:33;;;;;;;4.00;2.53;;;;;;;16.16;56.94;100114.16;5034241;28;20394;-68
2023/05/08 00:19:59;;;;;;;4.20;3.03;;;;;;;16.12;57.36;100105.69;5034324;28;20041;-68
2023/05/08 00:22:24;;;;;;;5.53;3.10;;;;;;;15.99;58.10;100104.72;5035533;28;20029;-68
2023/05/08 00:24:50;;;;;;;4.40;2.80;;;;;;;16.00;58.23;100114.38;5034412;28;20625;-67
2023/05/08 00:27:16;;;;;;;4.57;2.75;;;;;;;15.94;58.20;100097.25;5036686;28;20041;-68
2023/05/08 00:29:42;;;;;;;3.97;2.83;;;;;;;16.01;58.27;100108.03;5033572;28;20037;-68
2023/05/08 00:32:07;;;;;;;3.22;2.92;;;;;;;16.03;57.38;100097.97;5035978;28;20033;-68
2023/05/08 00:34:33;;;;;;;3.58;2.97;;;;;;;16.01;57.03;100103.50;5035517;28;20045;-68
2023/05/08 00:36:59;;;;;;;3.10;2.80;;;;;;;16.03;56.98;100109.50;5034090;28;20036;-68
2023/05/08 00:39:24;;;;;;;5.10;2.95;;;;;;;16.01;56.78;100108.03;5039606;28;20029;-68
2023/05/08 00:41:50;;;;;;;3.83;2.90;;;;;;;15.90;56.19;100112.00;5035933;28;20338;-68
2023/05/08 00:44:15;;;;;;;3.35;2.75;;;;;;;15.88;56.31;100114.88;5035104;28;20033;-68
2023/05/08 00:46:42;;;;;;;4.85;2.72;;;;;;;15.70;56.43;100079.72;5034451;28;20029;-68
2023/05/08 00:49:13;;;;;;;3.22;2.70;;;;;;;15.91;56.11;100109.16;5034230;28;20174;-68
2023/05/08 00:51:41;;;;;;;3.40;2.60;;;;;;;15.90;56.77;100112.00;5035308;28;20049;-68
2023/05/08 00:54:07;;;;;;;2.72;2.50;;;;;;;15.80;56.54;100108.81;5035008;28;20033;-67
2023/05/08 00:56:34;;;;;;;3.10;2.40;;;;;;;15.81;56.46;100115.78;5037058;28;20113;-67
2023/05/08 00:59:00;;;;;;;5.25;2.90;;;;;;;15.82;56.70;100114.78;5035238;28;20029;-67
2023/05/08 01:01:26;;;;;;;5.55;2.88;;;;;;;15.83;56.70;100119.94;5034021;28;20291;-68
2023/05/08 01:03:52;;;;;;;4.30;2.88;;;;;;;15.81;57.28;100124.63;5035838;28;20304;-68
2023/05/08 01:06:17;;;;;;;4.65;2.80;;;;;;;15.79;56.97;100129.34;5034676;28;20275;-67
2023/05/08 01:08:44;;;;;;;5.93;3.00;;;;;;;15.76;57.52;100131.56;5035348;28;20033;-68
2023/05/08 01:11:28;;;;;;;6.15;3.38;;;;;;;15.75;57.43;100136.06;5035789;28;20037;-68
2023/05/08 01:13:56;;;;;;;5.03;3.40;;;;;;;15.73;57.59;100134.59;5034122;28;20055;-68
2023/05/08 01:16:44;;;;;;;4.78;3.10;;;;;;;15.73;57.23;100135.41;5034141;28;20050;-68
2023/05/08 01:19:34;;;;;;;3.38;2.85;;;;;;;15.76;58.03;100137.72;5033005;28;20092;-68
2023/05/08 01:22:19;;;;;;;3.42;3.13;;;;;;;15.73;58.03;100135.41;5033745;28;20320;-68
2023/05/08 01:25:36;;;;;;;4.07;3.00;;;;;;;15.72;57.69;100139.09;5030429;28;20734;-68
2023/05/08 01:28:07;;;;;;;5.63;3.40;;;;;;;15.67;58.72;100138.84;5040515;28;20120;-68
2023/05/08 01:30:53;;;;;;;4.90;2.92;;;;;;;15.64;58.97;100133.88;5034277;28;20083;-68
2023/05/08 01:33:29;;;;;;;5.75;3.38;;;;;;;15.64;59.16;100140.03;5032882;28;20044;-67
2023/05/08 01:36:28;;;;;;;6.72;3.10;;;;;;;15.61;59.04;100143.06;5033219;28;20339;-68
2023/05/08 01:39:20;;;;;;;4.72;2.58;;;;;;;15.48;59.14;100136.66;5033229;28;20284;-68
2023/05/08 01:41:56;;;;;;;10.10;2.80;;;;;;;15.41;59.36;100133.91;5031910;28;20049;-68
2023/05/08 01:44:27;;;;;;;3.13;2.83;;;;;;;15.42;58.94;100138.22;5033836;28;20049;-67
2023/05/08 01:46:53;;;;;;;4.40;3.05;;;;;;;15.36;58.74;100130.13;5034257;28;20025;-67
2023/05/08 01:49:26;;;;;;;3.67;2.95;;;;;;;15.07;60.57;100129.09;5034087;28;20342;-67
2023/05/08 01:52:06;;;;;;;3.28;2.90;;;;;;;15.05;61.24;100141.78;5034161;28;20100;-68
2023/05/08 01:55:04;;;;;;;4.60;2.90;;;;;;;14.96;61.08;100138.34;5031577;28;20042;-68
2023/05/08 01:57:33;;;;;;;5.22;3.00;;;;;;;14.93;61.18;100138.72;5030388;28;20050;-68
2023/05/08 02:00:01;;;;;;;5.35;3.17;;;;;;;14.89;61.27;100139.25;5031239;28;20239;-67
2023/05/08 02:02:30;;;;;;;5.30;3.15;;;;;;;14.87;61.21;100135.94;5034378;28;20029;-68
2023/05/08 02:04:57;;;;;;;6.20;3.40;;;;;;;14.84;61.41;100126.47;5034969;28;20377;-67
2023/05/08 02:07:24;;;;;;;4.82;3.42;;;;;;;14.78;62.07;100129.03;5034173;28;20029;-68
2023/05/08 02:09:52;;;;;;;3.85;3.00;;;;;;;14.85;61.51;100135.28;5033052;28;20041;-68
2023/05/08 02:12:20;;;;;;;7.25;3.28;;;;;;;14.88;60.62;100134.94;5033632;28;20230;-68
2023/05/08 02:14:48;;;;;;;4.38;2.60;;;;;;;14.93;59.63;100132.56;5032474;28;20033;-68
2023/05/08 02:17:16;;;;;;;5.68;3.25;;;;;;;14.97;59.44;100131.19;5029060;28;20262;-67
2023/05/08 02:19:43;;;;;;;4.38;3.05;;;;;;;14.96;58.81;100125.03;5033098;28;20369;-68
2023/05/08 02:22:09;;;;;;;7.32;3.15;;;;;;;14.92;59.49;100130.91;5029649;28;20045;-68
2023/05/08 02:24:37;;;;;;;4.95;3.03;;;;;;;14.95;58.85;100125.19;5033235;28;20052;-67
2023/05/08 02:27:04;;;;;;;3.97;2.88;;;;;;;14.97;59.14;100128.50;5034453;28;20037;-68
2023/05/08 02:29:30;;;;;;;4.80;3.33;;;;;;;14.96;59.53;100133.03;5032486;28;20386;-68
2023/05/08 02:31:57;;;;;;;4.13;2.72;;;;;;;14.95;59.83;100138.53;5032101;28;20037;-68
2023/05/08 02:34:23;;;;;;;4.45;2.90;;;;;;;14.95;59.75;100146.53;5033948;28;20051;-67
2023/05/08 02:36:53;;;;;;;4.60;3.05;;;;;;;15.00;59.87;100149.50;5032837;28;20096;-67
2023/05/08 02:39:21;;;;;;;3.92;2.92;;;;;;;14.98;59.92;100151.50;5032370;28;20052;-67
2023/05/08 02:41:47;;;;;;;3.42;2.90;;;;;;;14.95;59.23;100155.38;5032450;28;20030;-68
2023/05/08 02:44:13;;;;;;;3.40;3.10;;;;;;;14.93;59.77;100148.56;5033576;28;20086;-68
2023/05/08 02:47:30;;;;;;;3.50;3.20;;;;;;;14.89;60.15;100144.59;5032878;28;20056;-67
2023/05/08 02:50:27;;;;;;;4.10;3.15;;;;;;;14.90;60.01;100146.25;5002192;28;20065;-68
2023/05/08 02:53:03;;;;;;;5.70;3.42;;;;;;;14.88;59.81;100142.94;5033365;28;20069;-68
2023/05/08 02:55:59;;;;;;;3.95;2.95;;;;;;;14.64;61.01;100149.28;5031173;28;20100;-67
2023/05/08 02:58:34;;;;;;;3.42;2.97;;;;;;;14.59;61.34;100157.81;5031715;28;20049;-67
2023/05/08 03:01:07;;;;;;;4.00;2.90;;;;;;;14.55;61.14;100150.34;5033094;28;20029;-68
2023/05/08 03:03:43;;;;;;;4.78;3.38;;;;;;;14.51;61.27;100136.53;5033820;28;20078;-67
2023/05/08 03:06:13;;;;;;;3.55;2.72;;;;;;;14.37;60.83;100132.78;5032165;28;20057;-67
2023/05/08 03:08:41;;;;;;;4.35;3.38;;;;;;;14.31;61.40;100136.13;5032267;28;20375;-67
2023/05/08 03:11:15;;;;;;;6.60;3.10;;;;;;;14.32;61.24;100134.31;5033201;28;20034;-67
2023/05/08 03:13:43;;;;;;;5.10;3.22;;;;;;;14.34;61.26;100134.97;5032354;28;20056;-67
2023/05/08 03:16:21;;;;;;;4.43;3.00;;;;;;;14.42;61.24;100145.59;5032897;28;20175;-67
2023/05/08 03:19:00;;;;;;;3.25;2.75;;;;;;;14.47;61.56;100143.22;5030041;28;20267;-67
2023/05/08 03:21:29;;;;;;;4.15;3.40;;;;;;;14.51;61.39;100147.19;5031093;28;20029;-68
2023/05/08 03:23:57;;;;;;;5.00;3.45;;;;;;;14.53;61.75;100153.19;5033553;28;20045;-68
2023/05/08 03:26:23;;;;;;;4.65;3.28;;;;;;;14.58;60.92;100158.00;5033502;28;20041;-68
2023/05/08 03:28:50;;;;;;;5.80;3.45;;;;;;;14.57;61.35;100154.50;5033152;28;20105;-68
2023/05/08 03:31:21;;;;;;;3.85;3.30;;;;;;;14.64;61.87;100154.63;5031099;28;20041;-68
2023/05/08 03:33:53;;;;;;;5.95;4.75;;;;;;;14.57;61.94;100157.16;5031861;28;20029;-67
2023/05/08 03:36:20;;;;;;;5.03;3.83;;;;;;;14.50;61.94;100166.84;5032854;28;20300;-68
2023/05/08 03:38:45;;;;;;;6.53;3.35;;;;;;;14.42;62.42;100166.03;5032504;28;20033;-68
2023/05/08 03:41:11;;;;;;;4.57;3.65;;;;;;;14.45;63.01;100166.56;5029802;28;20370;-67
2023/05/08 03:43:38;;;;;;;4.80;3.63;;;;;;;14.41;63.01;100151.06;5036077;28;20224;-68
2023/05/08 03:46:06;;;;;;;5.50;4.03;;;;;;;14.55;62.46;100164.47;5036435;28;20073;-68
2023/05/08 03:48:33;;;;;;;6.28;3.70;;;;;;;14.68;62.25;100171.91;5032664;28;20204;-68
2023/05/08 03:51:03;;;;;;;6.63;3.60;;;;;;;14.72;62.70;100170.56;5035635;28;20045;-68
2023/05/08 03:53:29;;;;;;;6.15;3.50;;;;;;;14.73;63.00;100169.53;5035818;28;20041;-68
2023/05/08 03:55:57;;;;;;;5.95;3.47;;;;;;;14.78;62.98;100171.69;5036846;28;20350;-67
2023/05/08 03:58:35;;;;;;;8.10;3.67;;;;;;;14.76;62.48;100177.19;5035909;28;20052;-68
2023/05/08 04:01:12;;;;;;;10.50;5.28;;;;;;;14.72;62.77;100173.22;5036459;28;20151;-68
2023/05/08 04:03:59;;;;;;;9.70;6.20;;;;;;;14.68;62.62;100175.41;5035582;28;20038;-68
2023/05/08 04:06:36;;;;;;;9.52;6.38;;;;;;;14.85;61.61;100177.94;5032695;28;20105;-68
2023/05/08 04:09:07;;;;;;;5.75;4.10;;;;;;;14.88;62.24;100180.25;5035792;28;20124;-67
2023/05/08 04:11:39;;;;;;;6.38;4.10;;;;;;;14.49;63.77;100181.19;5036486;28;20045;-68
2023/05/08 04:14:06;;;;;;;5.55;4.28;;;;;;;14.48;63.60;100182.19;5035563;28;20041;-68
2023/05/08 04:16:37;;;;;;;8.00;4.70;;;;;;;14.19;64.17;100156.19;5035850;28;20040;-67
2023/05/08 04:19:14;;;;;;;8.43;5.32;;;;;;;14.42;64.11;100196.22;5034838;28;20370;-68
2023/05/08 04:21:42;;;;;;;6.57;4.55;;;;;;;14.37;63.90;100195.88;5031032;28;20036;-68
2023/05/08 04:24:11;;;;;;;7.13;4.20;;;;;;;14.25;63.57;100192.78;5034817;28;20067;-68
2023/05/08 04:26:37;;;;;;;6.50;4.35;;;;;;;14.23;64.17;100194.78;5034703;28;20029;-68
2023/05/08 04:29:05;;;;;;;4.97;4.05;;;;;;;14.47;62.46;100203.69;5031559;28;20053;-68
2023/05/08 04:31:34;;;;;;;5.53;3.95;;;;;;;14.30;63.04;100201.06;5035264;28;20104;-68
2023/05/08 04:34:01;;;;;;;5.53;4.15;;;;;;;14.20;63.96;100191.66;5035614;28;20029;-68
2023/05/08 04:36:29;;;;;;;6.50;4.20;;;;;;;14.46;62.57;100194.03;5035013;28;20112;-68
2023/05/08 04:38:55;;;;;;;6.65;3.78;;;;;;;14.73;61.44;100184.72;5036084;28;20073;-68
2023/05/08 04:41:21;;;;;;;7.28;3.92;;;;;;;14.94;60.05;100184.88;5034799;28;20343;-67
2023/05/08 04:43:47;;;;;;;6.72;3.83;;;;;;;15.22;60.06;100185.13;5035346;28;20212;-68
2023/05/08 04:46:13;;;;;;;5.53;4.20;;;;;;;15.52;58.27;100186.00;5034333;28;20053;-68
2023/05/08 04:48:38;;;;;;;4.75;3.63;;;;;;;15.89;58.18;100193.97;5034986;28;20433;-68
2023/05/08 04:51:04;;;;;;;6.93;3.95;;;;;;;16.06;56.49;100189.25;5034830;28;20041;-67
2023/05/08 04:53:29;;;;;;;5.28;3.70;;;;;;;16.28;55.54;100190.13;5033691;28;20083;-68
2023/05/08 04:55:56;;;;;;;7.32;4.00;;;;;;;16.51;55.20;100190.78;5036094;28;20040;-68
2023/05/08 04:58:21;;;;;;;7.10;3.97;;;;;;;16.69;54.85;100187.75;5034223;28;20029;-68
2023/05/08 05:00:47;;;;;;;5.07;3.42;;;;;;;16.95;53.15;100194.34;5035897;28;20052;-68
2023/05/08 05:03:13;;;;;;;4.88;2.90;;;;;;;16.86;49.88;100193.66;5035097;28;20033;-68
2023/05/08 05:05:38;;;;;;;5.35;3.47;;;;;;;17.09;50.03;100183.56;5034819;28;20029;-68
2023/05/08 05:08:04;;;;;;;3.85;3.10;;;;;;;17.44;48.71;100179.09;5035267;28;20079;-68
2023/05/08 05:10:29;;;;;;;3.92;2.67;;;;;;;17.74;47.72;100182.44;5033399;28;20033;-68
2023/05/08 05:12:54;;;;;;;3.42;2.83;;;;;;;17.85;47.15;100178.38;5034783;28;20088;-68
2023/05/08 05:15:20;;;;;;;5.40;2.90;;;;;;;18.09;46.28;100185.88;5035724;28;20061;-68
2023/05/08 05:17:46;;;;;;;3.63;2.80;;;;;;;18.17;46.33;100184.88;5035857;28;20057;-68
2023/05/08 05:20:12;;;;;;;4.97;2.80;;;;;;;18.08;46.46;100184.25;5035285;28;20030;-68
2023/05/08 05:22:37;;;;;;;4.43;3.03;;;;;;;18.10;46.48;100187.53;5034077;28;20055;-68
2023/05/08 05:25:03;;;;;;;4.03;3.70;;;;;;;18.26;45.73;100181.00;5033438;28;20041;-68
2023/05/08 05:27:29;;;;;;;6.00;3.47;;;;;;;18.54;45.74;100178.19;5034371;28;20075;-68
2023/05/08 05:29:54;;;;;;;3.55;3.00;;;;;;;18.61;45.51;100176.38;5033839;28;20033;-68
2023/05/08 05:32:20;;;;;;;5.75;3.33;;;;;;;18.42;45.30;100175.28;5033382;28;20025;-68
2023/05/08 05:34:45;;;;;;;4.85;3.05;;;;;;;18.51;45.99;100175.91;5034293;28;20033;-68
2023/05/08 05:37:11;;;;;;;6.45;3.72;;;;;;;18.70;45.13;100175.16;5034123;28;20033;-68
2023/05/08 05:39:36;;;;;;;4.45;3.30;;;;;;;18.80;45.46;100164.06;5033629;28;20036;-68
2023/05/08 05:42:02;;;;;;;6.45;3.58;;;;;;;18.66;45.39;100168.53;5034980;28;20041;-68
2023/05/08 05:44:27;;;;;;;4.65;3.80;;;;;;;18.82;45.73;100162.00;5034111;28;20037;-68
2023/05/08 05:46:53;;;;;;;6.68;3.30;;;;;;;18.97;45.78;100164.47;5033557;28;20036;-68
2023/05/08 05:49:18;;;;;;;4.00;3.30;;;;;;;18.99;45.11;100159.72;5034595;28;20718;-68
2023/05/08 05:51:44;;;;;;;4.93;3.25;;;;;;;19.22;44.36;100156.63;5033418;28;20029;-68
2023/05/08 05:54:09;;;;;;;5.38;3.63;;;;;;;19.42;43.49;100150.19;5033003;28;20082;-68
2023/05/08 05:56:35;;;;;;;5.25;3.40;;;;;;;19.46;42.98;100147.91;5032322;28;20055;-68
2023/05/08 05:59:00;;;;;;;5.05;3.30;;;;;;;19.58;43.13;100148.09;5035950;28;20339;-68
2023/05/08 06:01:27;;;;;;;3.78;3.38;;;;;;;19.30;43.15;100146.47;5037698;28;20033;-68
2023/05/08 06:03:53;;;;;;;4.38;3.75;;;;;;;19.26;42.86;100141.75;5038108;28;20346;-68
2023/05/08 06:06:19;;;;;;;4.35;3.30;;;;;;;19.49;42.11;100133.22;5038095;28;20045;-68
2023/05/08 06:08:44;;;;;;;4.25;3.08;;;;;;;19.38;41.91;100111.34;5038429;28;20041;-65
2023/05/08 06:11:10;;;;;;;4.25;2.78;;;;;;;19.76;39.53;100143.72;5038710;28;20056;-68
2023/05/08 06:13:38;;;;;;;4.93;3.40;;;;;;;20.00;39.99;100147.56;5037932;28;20068;-65
2023/05/08 06:16:04;;;;;;;4.82;2.47;;;;;;;20.14;38.60;100145.66;5037706;28;20064;-65
2023/05/08 06:18:30;;;;;;;3.10;2.80;;;;;;;20.43;37.74;100140.75;5038068;28;20050;-68
2023/05/08 06:20:57;;;;;;;2.25;2.00;;;;;;;20.69;37.04;100143.28;5037543;28;20366;-68
2023/05/08 06:23:22;;;;;;;4.45;3.25;;;;;;;20.44;38.05;100142.41;5038378;28;20033;-65
2023/05/08 06:25:48;;;;;;;5.32;3.50;;;;;;;20.70;37.66;100147.63;5038088;28;20033;-65
2023/05/08 06:28:14;;;;;;;4.38;2.88;;;;;;;20.76;36.24;100137.84;5037842;28;20148;-65
2023/05/08 06:30:39;;;;;;;4.35;2.85;;;;;;;20.92;37.67;100142.72;5037696;28;20324;-68
2023/05/08 06:33:05;;;;;;;4.38;2.60;;;;;;;21.03;36.92;100134.75;5037758;28;20036;-66
2023/05/08 06:35:30;;;;;;;4.80;2.83;;;;;;;20.49;39.76;100129.13;5037753;28;20116;-65
2023/05/08 06:37:56;;;;;;;5.65;4.05;;;;;;;20.25;40.58;100136.91;5038028;28;20299;-68
2023/05/08 06:40:22;;;;;;;5.93;3.40;;;;;;;20.43;40.34;100127.31;5038124;28;20113;-68
2023/05/08 06:42:48;;;;;;;4.50;3.33;;;;;;;20.83;40.22;100126.00;5038299;28;20514;-68
2023/05/08 06:45:13;;;;;;;5.32;3.13;;;;;;;21.16;39.10;100120.34;5037522;28;20041;-68
2023/05/08 06:47:39;;;;;;;4.32;2.42;;;;;;;21.28;37.78;100117.75;5037644;28;20259;-65
2023/05/08 06:50:05;;;;;;;3.90;2.50;;;;;;;21.02;37.20;100111.56;5037437;28;20461;-65
2023/05/08 06:52:31;;;;;;;3.92;2.42;;;;;;;20.74;37.43;100111.16;5035838;28;20276;-64
2023/05/08 06:54:57;;;;;;;3.25;2.70;;;;;;;20.73;36.97;100123.78;5032559;28;20072;-65
2023/05/08 06:57:25;;;;;;;3.60;2.65;;;;;;;21.25;37.04;100116.34;5028449;28;20018;-65
2023/05/08 06:59:51;;;;;;;3.65;2.75;;;;;;;21.32;36.79;100111.72;5036330;28;20319;-65
2023/05/08 07:02:17;;;;;;;3.05;2.67;;;;;;;20.97;37.49;100108.69;5037552;28;20048;-66
2023/05/08 07:04:43;;;;;;;3.70;2.63;;;;;;;21.24;36.57;100105.78;5036984;28;20274;-65
2023/05/08 07:07:08;;;;;;;3.30;2.80;;;;;;;21.24;37.49;100103.91;5037604;28;20034;-65
2023/05/08 07:09:34;;;;;;;6.43;3.00;;;;;;;21.30;37.25;100103.03;5038174;28;20517;-65
2023/05/08 07:11:59;;;;;;;4.15;2.92;;;;;;;21.72;36.75;100103.19;5037433;28;20087;-66
2023/05/08 07:14:26;;;;;;;5.40;3.08;;;;;;;21.96;36.21;100099.56;5037781;28;20044;-66
2023/05/08 07:16:51;;;;;;;5.85;3.90;;;;;;;22.24;35.62;100093.63;5039428;28;20025;-66
2023/05/08 07:19:17;;;;;;;8.02;4.00;;;;;;;22.19;36.46;100095.34;5040502;28;20229;-64
2023/05/08 07:21:44;;;;;;;5.18;3.78;;;;;;;22.34;37.32;100100.34;5041243;28;20220;-64
2023/05/08 07:24:10;;;;;;;6.57;3.95;;;;;;;22.46;37.74;100082.28;5041406;28;20041;-64
2023/05/08 07:26:35;;;;;;;6.60;3.85;;;;;;;22.34;36.29;100095.75;5040273;28;20044;-66
2023/05/08 07:29:01;;;;;;;5.35;4.07;;;;;;;22.59;36.56;100088.31;5052958;28;20029;-67
2023/05/08 07:31:27;;;;;;;5.53;4.18;;;;;;;22.66;36.20;100082.81;5048514;28;20292;-64
2023/05/08 07:33:52;;;;;;;7.05;4.05;;;;;;;22.76;35.41;100084.94;5049491;28;20044;-65
2023/05/08 07:36:18;;;;;;;5.28;4.10;;;;;;;22.93;35.97;100091.34;5042637;28;20060;-66
2023/05/08 07:38:43;;;;;;;7.22;3.90;;;;;;;22.86;36.10;100087.91;5044400;28;20072;-67
2023/05/08 07:41:09;;;;;;;6.10;4.50;;;;;;;22.30;37.59;100084.59;5049292;28;20048;-66
2023/05/08 07:43:34;;;;;;;6.80;3.92;;;;;;;21.88;38.13;100085.59;5041121;28;20037;-66
2023/05/08 07:46:00;;;;;;;6.32;4.47;;;;;;;21.95;37.21;100080.94;5040735;28;20282;-65
2023/05/08 07:48:25;;;;;;;5.45;4.75;;;;;;;21.93;37.10;100086.56;5040676;28;20364;-66
2023/05/08 07:50:51;;;;;;;5.47;4.05;;;;;;;22.32;36.14;100089.78;5041041;28;20045;-65
2023/05/08 07:53:16;;;;;;;5.63;4.90;;;;;;;22.09;37.21;100082.44;5041084;28;20071;-65
2023/05/08 07:55:42;;;;;;;7.22;4.88;;;;;;;22.41;36.33;100080.28;5040807;28;20068;-66
2023/05/08 07:58:08;;;;;;;7.75;4.95;;;;;;;22.79;36.69;100076.34;5040911;28;20045;-64
2023/05/08 08:00:33;;;;;;;8.27;5.18;;;;;;;22.50;36.55;100076.22;5040676;28;20041;-65
2023/05/08 08:02:59;;;;;;;5.15;3.80;;;;;;;22.79;35.58;100076.34;5040365;28;20279;-64
2023/05/08 08:05:24;;;;;;;4.20;3.67;;;;;;;22.88;36.81;100070.41;5040687;28;20267;-64
2023/05/08 08:07:50;;;;;;;4.53;3.65;;;;;;;23.26;35.17;100066.41;5040663;28;20332;-64
2023/05/08 08:10:15;;;;;;;4.50;4.05;;;;;;;23.40;35.00;100050.78;5039077;28;20065;-63
2023/05/08 08:12:41;;;;;;;6.80;4.70;;;;;;;23.69;34.48;100060.59;5038510;28;20045;-66
2023/05/08 08:15:07;;;;;;;8.45;4.43;;;;;;;23.17;36.21;100063.25;5038580;28;20045;-64
2023/05/08 08:17:32;;;;;;;8.77;4.30;;;;;;;23.30;35.22;100050.56;5038181;28;20061;-65
2023/05/08 08:19:58;;;;;;;7.43;4.55;;;;;;;23.32;35.39;100051.16;5038353;28;20354;-67
2023/05/08 08:22:24;;;;;;;5.65;5.00;;;;;;;23.24;36.01;100047.75;5038255;28;20036;-63
2023/05/08 08:24:50;;;;;;;6.70;5.10;;;;;;;23.50;36.34;100051.00;5039924;28;20203;-63
2023/05/08 08:27:15;;;;;;;7.72;5.18;;;;;;;23.75;36.10;100053.41;5039420;28;20208;-64
2023/05/08 08:29:40;;;;;;;11.30;3.95;;;;;;;23.70;34.20;100051.44;5038514;28;20377;-63
2023/05/08 08:32:06;;;;;;;11.52;4.90;;;;;;;23.68;35.15;100052.72;5040111;28;20041;-63
2023/05/08 08:34:35;;;;;;;6.32;5.30;;;;;;;23.68;36.87;100041.91;5040187;28;20072;-64
2023/05/08 08:37:00;;;;;;;7.05;5.50;;;;;;;23.72;35.94;100037.66;5038168;28;20105;-64
2023/05/08 08:39:26;;;;;;;5.55;4.90;;;;;;;23.89;35.43;100033.13;5045307;28;20275;-64
2023/05/08 08:41:51;;;;;;;6.90;4.38;;;;;;;23.91;35.12;100028.28;5038377;28;20049;-64
2023/05/08 08:44:17;;;;;;;6.40;4.35;;;;;;;23.38;37.18;100028.56;5039757;28;20044;-63
2023/05/08 08:46:52;;;;;;;6.45;4.40;;;;;;;22.99;36.75;100027.47;5039552;28;20224;-66
2023/05/08 08:49:23;;;;;;;6.45;4.90;;;;;;;22.85;37.09;100024.97;5039592;28;20033;-66
2023/05/08 08:51:52;;;;;;;5.28;4.07;;;;;;;22.92;36.93;100033.00;5039018;28;20335;-66
2023/05/08 08:54:24;;;;;;;5.60;4.05;;;;;;;22.91;37.40;100023.25;5038324;28;20025;-66
2023/05/08 08:56:51;;;;;;;8.70;4.60;;;;;;;22.85;37.58;100024.16;5039660;28;20025;-66
2023/05/08 08:59:17;;;;;;;10.45;4.93;;;;;;;23.11;38.65;100020.16;5038155;28;20045;-68
2023/05/08 09:01:55;;;;;;;8.50;5.00;;;;;;;23.22;37.21;100013.94;5040234;28;20045;-66
2023/05/08 09:04:20;;;;;;;6.40;4.28;;;;;;;23.06;37.82;100009.25;5045495;28;20033;-63
2023/05/08 09:06:48;;;;;;;6.50;4.32;;;;;;;22.75;38.58;100015.78;5038304;28;20045;-67
2023/05/08 09:09:13;;;;;;;5.90;4.32;;;;;;;22.66;40.37;100014.50;5038104;28;20031;-67
2023/05/08 09:11:40;;;;;;;5.72;3.78;;;;;;;22.55;38.94;100005.34;5041904;28;20096;-67
2023/05/08 09:14:06;;;;;;;6.53;4.43;;;;;;;22.66;38.60;100004.53;5038781;28;20053;-65
2023/05/08 09:16:31;;;;;;;5.57;3.80;;;;;;;22.69;38.96;100001.34;5038299;28;20060;-64
2023/05/08 09:18:57;;;;;;;4.57;3.95;;;;;;;22.24;40.08;99999.22;5038555;28;20314;-63
2023/05/08 09:21:23;;;;;;;7.85;4.72;;;;;;;22.38;40.06;99999.81;5038004;28;20041;-63
2023/05/08 09:23:58;;;;;;;6.88;3.97;;;;;;;22.57;39.55;99992.44;5038489;28;20799;-66
2023/05/08 09:26:32;;;;;;;5.35;4.15;;;;;;;22.42;39.34;99979.41;5038409;28;20048;-66
2023/05/08 09:29:21;;;;;;;6.53;4.15;;;;;;;22.62;39.46;99976.38;5037974;28;20268;-67
2023/05/08 09:31:48;;;;;;;4.90;4.30;;;;;;;22.86;39.89;99978.03;5040198;28;20228;-69
2023/05/08 09:34:32;;;;;;;6.93;4.25;;;;;;;22.70;39.89;99964.38;5038134;28;20037;-66
2023/05/08 09:37:03;;;;;;;7.18;4.25;;;;;;;22.44;39.17;99961.09;5038014;28;20052;-66
2023/05/08 09:39:29;;;;;;;5.38;4.03;;;;;;;22.53;39.98;99956.19;5039045;28;20041;-63
2023/05/08 09:41:59;;;;;;;10.45;4.70;;;;;;;22.49;40.44;99955.81;5038293;28;20033;-66
2023/05/08 09:44:25;;;;;;;6.82;4.72;;;;;;;22.42;40.61;99951.59;5037563;28;20196;-63
2023/05/08 09:46:50;;;;;;;5.50;4.40;;;;;;;22.41;40.94;99942.69;5038813;28;20105;-69
2023/05/08 09:49:17;;;;;;;5.75;4.43;;;;;;;22.42;40.75;99936.25;5038043;28;20693;-63
2023/05/08 09:51:55;;;;;;;6.90;4.05;;;;;;;22.34;40.84;99935.78;5038270;28;20919;-64
2023/05/08 09:54:20;;;;;;;7.57;4.80;;;;;;;22.46;40.58;99937.41;5037992;28;20037;-67
2023/05/08 09:56:46;;;;;;;9.95;5.68;;;;;;;22.65;40.12;99930.00;5038026;28;20029;-67
2023/05/08 09:59:28;;;;;;;6.55;4.90;;;;;;;22.35;39.75;99929.31;5038062;28;20044;-64
2023/05/08 10:01:56;;;;;;;11.15;5.50;;;;;;;22.56;39.45;99926.03;5037151;28;20041;-64
2023/05/08 10:04:35;;;;;;;18.48;7.18;;;;;;;22.57;40.03;99928.50;5038179;28;20256;-64
2023/05/08 10:07:02;;;;;;;588.58;118.90;;;;;;;22.61;40.40;99924.25;5037314;28;20471;-67
2023/05/08 10:09:27;;;;;;;8.55;4.07;;;;;;;22.56;43.44;99926.84;5038194;28;20095;-67
2023/05/08 10:11:54;;;;;;;8.38;4.07;;;;;;;22.61;41.25;99915.34;5040596;28;20029;-65
2023/05/08 10:14:23;;;;;;;6.35;3.97;;;;;;;22.52;41.26;99916.75;5036137;28;20033;-64
2023/05/08 10:16:51;;;;;;;8.00;4.72;;;;;;;22.50;42.19;99914.28;5035788;28;20044;-63
2023/05/08 10:19:18;;;;;;;7.40;4.25;;;;;;;22.52;42.17;99911.38;5036732;28;20077;-63
2023/05/08 10:21:53;;;;;;;11.48;5.05;;;;;;;22.55;41.64;99913.59;5036558;28;20025;-63
2023/05/08 10:24:27;;;;;;;6.45;4.38;;;;;;;22.54;41.01;99903.84;5035399;28;20232;-64
2023/05/08 10:27:04;;;;;;;;;;;;;;;22.58;40.59;99905.84;5035169;28;20034;-63
2023/05/08 10:29:46;;;;;;;5.93;4.70;;;;;;;22.36;44.03;99902.09;5036810;28;19948;-66
2023/05/08 10:32:13;;;;;;;7.28;4.60;;;;;;;22.25;45.60;99901.06;5036623;28;20037;-64
2023/05/08 10:34:40;;;;;;;5.05;4.30;;;;;;;22.36;41.97;99890.50;5036440;28;20124;-67
2023/05/08 10:37:10;;;;;;;8.43;4.50;;;;;;;22.25;44.04;99892.97;5035792;28;20090;-67
2023/05/08 10:39:36;;;;;;;4.82;4.32;;;;;;;22.34;42.51;99888.03;5036875;28;20075;-67
2023/05/08 10:42:02;;;;;;;8.27;5.07;;;;;;;22.34;41.80;99885.34;5037069;28;20037;-66
2023/05/08 10:44:28;;;;;;;5.63;4.35;;;;;;;22.50;40.95;99887.31;5035856;28;20044;-67
2023/05/08 10:47:22;;;;;;;9.77;4.95;;;;;;;22.61;40.50;99880.25;5035647;28;20084;-64
2023/05/08 10:49:56;;;;;;;10.77;5.32;;;;;;;22.56;40.30;99878.28;5036188;28;20032;-67
2023/05/08 10:52:40;;;;;;;8.60;5.80;;;;;;;22.71;41.87;99871.56;5033916;28;20045;-63
2023/05/08 10:55:15;;;;;;;;;;;;;;;22.62;42.29;99873.81;5036429;28;20049;-67
2023/05/08 10:58:00;;;;;;;6.53;5.18;;;;;;;22.48;41.49;99870.53;5035988;28;19925;-64
2023/05/08 11:00:31;;;;;;;7.50;5.25;;;;;;;22.61;41.77;99874.84;5036083;28;20037;-67
2023/05/08 11:03:04;;;;;;;7.57;4.97;;;;;;;22.55;44.06;99865.84;5036273;28;20029;-64
2023/05/08 11:05:30;;;;;;;8.30;5.30;;;;;;;22.66;43.01;99866.06;5035860;28;20331;-67
2023/05/08 11:07:57;;;;;;;7.25;4.78;;;;;;;22.60;43.02;99860.53;5036158;28;20100;-63
2023/05/08 11:10:35;;;;;;;6.80;4.80;;;;;;;22.79;43.04;99868.47;5036060;28;20041;-67
2023/05/08 11:13:03;;;;;;;6.35;4.32;;;;;;;22.86;44.09;99867.31;5036533;28;20045;-64
2023/05/08 11:15:41;;;;;;;6.03;4.43;;;;;;;22.87;42.51;99870.84;5034980;28;20037;-62
2023/05/08 11:18:12;;;;;;;8.00;4.93;;;;;;;22.95;41.63;99869.69;5029263;28;20265;-67
2023/05/08 11:20:42;;;;;;;6.82;4.30;;;;;;;23.00;43.24;99870.59;5029074;28;20351;-67
2023/05/08 11:23:27;;;;;;;5.43;4.50;;;;;;;22.95;41.76;99870.50;5029057;28;20041;-63
2023/05/08 11:26:15;;;;;;;6.68;4.45;;;;;;;22.92;42.54;99861.00;5028993;28;20203;-64
2023/05/08 11:28:53;;;;;;;6.47;4.50;;;;;;;22.97;41.82;99848.66;5027993;28;20029;-67
2023/05/08 11:31:19;;;;;;;7.93;4.72;;;;;;;23.02;42.36;99848.75;5029607;28;20045;-64
2023/05/08 11:33:44;;;;;;;6.65;4.47;;;;;;;23.11;42.51;99850.00;5029888;28;20102;-67
2023/05/08 11:36:14;;;;;;;8.15;5.00;;;;;;;23.22;44.09;99839.16;5032468;28;20115;-67